Time;durP1;ratioP1;P1;durP2;ratioP2;P2;SDS_P1;SDS_P2;PMS_P1;PMS_P2;Temp;Humidity;BMP_temperature;BMP_pressure;BME280_temperature;BME280_humidity;BME280_pressure;Samples;Min_cycle;Max_cycle;Signal;HPM_P1;HPM_P2
2021/12/30 00:01:00;;;;;;;0.10;0.10;;;11.90;99.90;;;;;;5071350;28;20168;-74
2021/12/30 00:03:27;;;;;;;0.30;0.20;;;12.00;99.90;;;;;;5070583;28;20652;-74
2021/12/30 00:05:53;;;;;;;0.00;0.00;;;12.00;99.90;;;;;;5071467;28;20066;-73
2021/12/30 00:08:21;;;;;;;0.00;0.00;;;12.00;99.90;;;;;;5069941;28;20059;-73
2021/12/30 00:10:47;;;;;;;0.00;0.00;;;12.10;99.90;;;;;;5070078;28;20024;-73
2021/12/30 00:13:13;;;;;;;0.00;0.00;;;12.10;99.90;;;;;;5070336;28;20035;-74
2021/12/30 00:15:39;;;;;;;0.10;0.10;;;12.10;99.90;;;;;;5071286;28;20477;-74
2021/12/30 00:18:10;;;;;;;0.00;0.00;;;12.10;99.90;;;;;;5053303;28;20033;-74
2021/12/30 00:20:37;;;;;;;0.00;0.00;;;12.10;99.90;;;;;;5071342;28;20040;-74
2021/12/30 00:23:06;;;;;;;0.30;0.20;;;12.20;99.90;;;;;;5071285;28;20041;-74
2021/12/30 00:25:38;;;;;;;0.10;0.10;;;12.10;99.90;;;;;;5069943;28;20078;-73
2021/12/30 00:28:14;;;;;;;0.10;0.10;;;12.20;99.90;;;;;;5070540;28;20457;-74
2021/12/30 00:30:42;;;;;;;0.35;0.30;;;12.20;99.90;;;;;;5071010;28;20074;-74
2021/12/30 00:33:08;;;;;;;0.05;0.05;;;12.20;99.90;;;;;;5071108;28;20596;-74
2021/12/30 00:35:35;;;;;;;1.35;0.80;;;12.30;99.90;;;;;;5070332;28;20392;-74
2021/12/30 00:38:02;;;;;;;0.00;0.00;;;12.50;99.90;;;;;;5071122;28;20029;-74
2021/12/30 00:40:28;;;;;;;0.10;0.10;;;12.60;99.90;;;;;;5071359;28;20036;-74
2021/12/30 00:42:54;;;;;;;0.10;0.10;;;12.60;99.90;;;;;;5070765;28;20040;-74
2021/12/30 00:45:20;;;;;;;0.17;0.17;;;12.60;99.90;;;;;;5071207;28;20115;-74
2021/12/30 00:47:46;;;;;;;0.10;0.10;;;12.40;99.90;;;;;;5070583;28;20139;-75
2021/12/30 00:50:12;;;;;;;0.00;0.00;;;12.50;99.90;;;;;;5070021;28;20063;-74
2021/12/30 00:52:38;;;;;;;0.40;0.40;;;12.70;99.90;;;;;;5036528;28;20078;-74
2021/12/30 00:55:05;;;;;;;0.30;0.30;;;12.60;99.90;;;;;;5070733;28;20029;-74
2021/12/30 00:57:31;;;;;;;0.52;0.52;;;12.50;99.90;;;;;;5072305;28;20036;-74
2021/12/30 00:59:57;;;;;;;0.22;0.22;;;12.50;99.90;;;;;;5074784;28;20041;-75
2021/12/30 01:02:23;;;;;;;0.13;0.13;;;12.60;99.90;;;;;;5074385;28;20036;-75
2021/12/30 01:04:49;;;;;;;0.00;0.00;;;12.70;99.90;;;;;;5073250;28;20090;-75
2021/12/30 01:07:15;;;;;;;0.10;0.10;;;13.00;99.90;;;;;;5074215;28;20119;-74
2021/12/30 01:09:41;;;;;;;0.00;0.00;;;13.00;99.90;;;;;;5074086;28;20544;-74
2021/12/30 01:12:07;;;;;;;0.00;0.00;;;13.00;99.90;;;;;;5074117;28;20024;-74
2021/12/30 01:14:36;;;;;;;0.85;0.80;;;12.90;99.90;;;;;;5072833;28;20033;-74
2021/12/30 01:17:16;;;;;;;0.00;0.00;;;12.90;99.90;;;;;;5072749;28;20112;-74
2021/12/30 01:19:42;;;;;;;0.00;0.00;;;12.90;99.90;;;;;;5073112;28;20531;-74
2021/12/30 01:22:35;;;;;;;4.75;1.55;;;12.90;99.90;;;;;;5056348;28;20039;-74
2021/12/30 01:25:04;;;;;;;2.53;1.08;;;12.90;99.90;;;;;;5072527;28;20090;-74
2021/12/30 01:27:30;;;;;;;0.00;0.00;;;13.20;99.90;;;;;;5074170;28;20033;-74
2021/12/30 01:29:56;;;;;;;0.00;0.00;;;13.00;99.90;;;;;;5073815;28;20120;-74
2021/12/30 01:32:22;;;;;;;0.00;0.00;;;13.20;99.90;;;;;;5072611;28;20555;-74
2021/12/30 01:34:48;;;;;;;0.10;0.10;;;13.20;99.90;;;;;;5072563;28;20032;-73
2021/12/30 01:37:19;;;;;;;0.00;0.00;;;13.30;99.90;;;;;;5074047;28;20039;-75
2021/12/30 01:39:44;;;;;;;0.00;0.00;;;13.20;99.90;;;;;;5072365;28;20020;-75
2021/12/30 01:42:11;;;;;;;0.60;0.47;;;13.20;99.90;;;;;;5073784;28;20048;-74
2021/12/30 01:44:37;;;;;;;0.00;0.00;;;13.20;99.90;;;;;;5072369;28;20085;-74
2021/12/30 01:47:04;;;;;;;1.05;0.98;;;13.20;99.90;;;;;;5073259;28;20388;-75
2021/12/30 01:49:31;;;;;;;0.00;0.00;;;13.10;99.90;;;;;;5072561;28;20135;-74
2021/12/30 01:51:57;;;;;;;0.20;0.20;;;13.00;99.90;;;;;;5072402;28;20071;-75
2021/12/30 01:54:25;;;;;;;0.00;0.00;;;13.00;99.90;;;;;;5073450;28;20056;-75
2021/12/30 01:56:53;;;;;;;0.00;0.00;;;12.90;99.90;;;;;;5073107;28;20427;-74
2021/12/30 01:59:21;;;;;;;0.00;0.00;;;12.90;99.90;;;;;;5073330;28;20373;-74
2021/12/30 02:01:53;;;;;;;0.00;0.00;;;13.00;99.90;;;;;;5073192;28;20028;-74
2021/12/30 02:04:19;;;;;;;0.20;0.20;;;13.10;99.90;;;;;;5072279;28;20025;-74
2021/12/30 02:06:45;;;;;;;0.00;0.00;;;13.10;99.90;;;;;;5073393;28;20468;-74
2021/12/30 02:09:11;;;;;;;0.00;0.00;;;13.10;99.90;;;;;;5072708;28;20055;-74
2021/12/30 02:11:37;;;;;;;0.55;0.55;;;13.00;99.90;;;;;;5073303;28;20097;-74
2021/12/30 02:14:03;;;;;;;0.00;0.00;;;13.10;99.90;;;;;;5072985;28;20032;-74
2021/12/30 02:16:29;;;;;;;1.25;1.10;;;13.10;99.90;;;;;;5072776;28;20032;-74
2021/12/30 02:18:54;;;;;;;0.00;0.00;;;13.00;99.90;;;;;;5071650;28;20049;-74
2021/12/30 02:21:20;;;;;;;0.00;0.00;;;13.10;99.90;;;;;;5072873;28;20036;-74
2021/12/30 02:23:47;;;;;;;0.00;0.00;;;13.10;99.90;;;;;;5073045;28;20379;-74
2021/12/30 02:26:17;;;;;;;0.00;0.00;;;13.00;99.90;;;;;;5072395;28;20068;-74
2021/12/30 02:28:45;;;;;;;0.10;0.10;;;13.10;99.90;;;;;;5071610;28;20044;-74
2021/12/30 02:31:17;;;;;;;0.30;0.30;;;13.10;99.90;;;;;;5071676;28;20036;-74
2021/12/30 02:33:45;;;;;;;0.00;0.00;;;13.00;99.90;;;;;;5072911;28;20052;-74
2021/12/30 02:36:12;;;;;;;0.00;0.00;;;13.00;99.90;;;;;;5070924;28;20174;-74
2021/12/30 02:38:44;;;;;;;0.70;0.70;;;13.00;99.90;;;;;;5072620;28;20032;-74
2021/12/30 02:41:15;;;;;;;0.00;0.00;;;12.90;99.90;;;;;;5055201;28;20028;-74
2021/12/30 02:43:41;;;;;;;0.00;0.00;;;12.90;99.90;;;;;;5071114;28;20032;-74
2021/12/30 02:46:07;;;;;;;0.00;0.00;;;12.90;99.90;;;;;;5072027;28;20362;-74
2021/12/30 02:48:35;;;;;;;0.20;0.20;;;12.80;99.90;;;;;;5072389;28;20536;-74
2021/12/30 02:51:06;;;;;;;0.00;0.00;;;12.90;99.90;;;;;;5071256;28;20068;-74
2021/12/30 02:53:33;;;;;;;;;;;12.90;99.90;;;;;;5072806;28;20056;-73
2021/12/30 02:55:59;;;;;;;0.00;0.00;;;13.00;99.90;;;;;;5070951;28;19946;-74
2021/12/30 02:58:26;;;;;;;0.00;0.00;;;13.00;99.90;;;;;;5071015;28;20027;-73
2021/12/30 03:01:31;;;;;;;0.00;0.00;;;13.00;99.90;;;;;;5072047;28;20028;-73
2021/12/30 03:04:02;;;;;;;0.00;0.00;;;13.10;99.90;;;;;;5055102;28;20496;-73
2021/12/30 03:06:29;;;;;;;0.00;0.00;;;13.10;99.90;;;;;;5072294;28;20039;-74
2021/12/30 03:08:55;;;;;;;3.25;0.57;;;13.20;99.90;;;;;;5070557;28;20440;-74
2021/12/30 03:11:23;;;;;;;0.45;0.45;;;13.00;99.90;;;;;;5070614;28;20036;-74
2021/12/30 03:13:57;;;;;;;0.00;0.00;;;13.00;99.90;;;;;;5070996;28;20032;-73
2021/12/30 03:16:29;;;;;;;0.08;0.08;;;12.90;99.90;;;;;;5072194;28;20029;-73
2021/12/30 03:18:57;;;;;;;0.00;0.00;;;12.90;99.90;;;;;;5071310;28;20033;-73
2021/12/30 03:21:24;;;;;;;0.00;0.00;;;12.80;99.90;;;;;;5070675;28;20044;-74
2021/12/30 03:23:52;;;;;;;0.00;0.00;;;12.80;99.90;;;;;;5071860;28;20040;-73
2021/12/30 03:26:19;;;;;;;0.00;0.00;;;12.80;99.90;;;;;;5057986;28;20036;-73
2021/12/30 03:28:47;;;;;;;0.00;0.00;;;12.80;99.90;;;;;;5034124;28;20075;-73
2021/12/30 03:31:17;;;;;;;0.00;0.00;;;12.70;99.90;;;;;;5051620;28;20037;-73
2021/12/30 03:33:43;;;;;;;0.15;0.08;;;12.80;99.90;;;;;;5051454;28;20048;-74
2021/12/30 03:36:11;;;;;;;0.30;0.25;;;12.70;99.90;;;;;;5051765;28;20082;-73
2021/12/30 03:38:41;;;;;;;0.40;0.40;;;12.70;99.90;;;;;;5051573;28;20064;-74
2021/12/30 03:41:10;;;;;;;0.00;0.00;;;12.70;99.90;;;;;;5050781;28;20037;-75
2021/12/30 03:43:36;;;;;;;0.70;0.70;;;12.70;99.90;;;;;;5033930;28;20033;-74
2021/12/30 03:46:05;;;;;;;0.05;0.05;;;12.70;99.90;;;;;;5050204;28;20052;-74
2021/12/30 03:48:33;;;;;;;0.00;0.00;;;12.80;99.90;;;;;;5051471;28;20033;-74
2021/12/30 03:51:08;;;;;;;0.10;0.10;;;12.90;99.90;;;;;;5051553;28;20500;-75
2021/12/30 03:53:39;;;;;;;0.10;0.10;;;13.00;99.90;;;;;;5051297;28;20037;-74
2021/12/30 03:56:11;;;;;;;0.00;0.00;;;12.90;99.90;;;;;;5051588;28;20504;-74
2021/12/30 03:58:39;;;;;;;0.00;0.00;;;12.90;99.90;;;;;;5050118;28;20037;-75
2021/12/30 04:01:06;;;;;;;1.35;0.52;;;12.90;99.90;;;;;;5049949;28;20029;-74
2021/12/30 04:03:32;;;;;;;0.55;0.55;;;12.90;99.90;;;;;;5051701;28;20045;-74
2021/12/30 04:05:58;;;;;;;0.10;0.10;;;12.70;99.90;;;;;;5051128;28;20496;-74
2021/12/30 04:08:24;;;;;;;0.00;0.00;;;12.80;99.90;;;;;;5049866;28;20033;-74
2021/12/30 04:10:50;;;;;;;0.30;0.30;;;12.80;99.90;;;;;;5051241;28;20049;-74
2021/12/30 04:13:16;;;;;;;3.03;1.35;;;12.80;99.90;;;;;;5049862;28;20040;-74
2021/12/30 04:15:41;;;;;;;0.00;0.00;;;12.70;99.90;;;;;;5051481;28;20037;-74
2021/12/30 04:18:07;;;;;;;0.00;0.00;;;12.70;99.90;;;;;;5051259;28;20131;-75
2021/12/30 04:20:33;;;;;;;0.15;0.15;;;12.70;99.90;;;;;;5049779;28;20029;-74
2021/12/30 04:22:59;;;;;;;1.60;0.63;;;12.60;99.90;;;;;;5051160;28;20162;-75
2021/12/30 04:25:25;;;;;;;0.00;0.00;;;12.60;99.90;;;;;;5051260;28;20040;-74
2021/12/30 04:27:51;;;;;;;0.00;0.00;;;12.50;99.90;;;;;;5051385;28;20556;-74
2021/12/30 04:30:17;;;;;;;0.20;0.20;;;12.50;99.90;;;;;;5033304;28;20102;-75
2021/12/30 04:32:44;;;;;;;0.00;0.00;;;12.40;99.90;;;;;;5054160;28;20375;-75
2021/12/30 04:35:12;;;;;;;0.22;0.22;;;12.30;99.90;;;;;;5053402;28;20051;-75
2021/12/30 04:37:38;;;;;;;0.00;0.00;;;12.40;99.90;;;;;;5054775;28;20393;-75
2021/12/30 04:40:06;;;;;;;0.00;0.00;;;12.40;99.90;;;;;;5054696;28;20037;-74
2021/12/30 04:42:32;;;;;;;0.00;0.00;;;12.40;99.90;;;;;;5055033;28;20029;-75
2021/12/30 04:44:58;;;;;;;0.00;0.00;;;12.50;99.90;;;;;;5037115;28;20025;-75
2021/12/30 04:47:25;;;;;;;3.85;0.52;;;12.50;99.90;;;;;;5054318;28;20132;-74
2021/12/30 04:49:52;;;;;;;0.28;0.22;;;12.40;99.90;;;;;;5054611;28;20108;-75
2021/12/30 04:52:19;;;;;;;0.10;0.10;;;12.50;99.90;;;;;;5054521;28;20033;-75
2021/12/30 04:54:49;;;;;;;0.00;0.00;;;12.50;99.90;;;;;;5053536;28;20052;-75
2021/12/30 04:57:16;;;;;;;0.00;0.00;;;12.60;99.90;;;;;;5036702;28;20033;-75
2021/12/30 04:59:41;;;;;;;0.10;0.10;;;12.70;99.90;;;;;;5067196;28;20116;-75
2021/12/30 05:02:07;;;;;;;0.22;0.22;;;12.70;99.90;;;;;;5073297;28;20116;-74
2021/12/30 05:04:33;;;;;;;0.00;0.00;;;12.70;99.90;;;;;;5073194;28;20366;-75
2021/12/30 05:06:59;;;;;;;1.60;0.25;;;12.80;99.90;;;;;;5072824;28;20032;-75
2021/12/30 05:09:28;;;;;;;0.00;0.00;;;12.80;99.90;;;;;;5074413;28;20499;-74
2021/12/30 05:11:54;;;;;;;0.20;0.20;;;12.80;99.90;;;;;;5073204;28;20032;-75
2021/12/30 05:14:20;;;;;;;0.00;0.00;;;12.90;99.90;;;;;;5074172;28;20366;-75
2021/12/30 05:16:46;;;;;;;0.00;0.00;;;12.90;99.90;;;;;;5074482;28;20082;-75
2021/12/30 05:19:12;;;;;;;0.57;0.57;;;12.90;99.90;;;;;;5074344;28;20033;-75
2021/12/30 05:21:38;;;;;;;0.00;0.00;;;12.90;99.90;;;;;;5073981;28;20044;-75
2021/12/30 05:24:04;;;;;;;0.00;0.00;;;13.00;99.90;;;;;;5072621;28;20036;-75
2021/12/30 05:26:30;;;;;;;0.00;0.00;;;13.00;99.90;;;;;;5072695;28;20035;-75
2021/12/30 05:28:58;;;;;;;0.00;0.00;;;13.10;99.90;;;;;;5073902;28;20115;-75
2021/12/30 05:31:26;;;;;;;0.00;0.00;;;13.10;99.90;;;;;;5072783;28;20067;-75
2021/12/30 05:33:52;;;;;;;0.00;0.00;;;13.20;99.90;;;;;;5073006;28;20031;-76
2021/12/30 05:36:18;;;;;;;0.00;0.00;;;13.20;99.90;;;;;;5072591;28;20389;-73
2021/12/30 05:38:45;;;;;;;0.10;0.10;;;13.10;99.90;;;;;;5073678;28;20040;-74
2021/12/30 05:41:11;;;;;;;0.00;0.00;;;13.20;99.90;;;;;;5072308;28;20032;-74
2021/12/30 05:43:36;;;;;;;0.00;0.00;;;13.20;99.90;;;;;;5073355;28;20059;-74
2021/12/30 05:46:02;;;;;;;0.00;0.00;;;13.20;99.90;;;;;;5073328;28;20024;-73
2021/12/30 05:48:28;;;;;;;0.00;0.00;;;13.20;99.90;;;;;;5073938;28;20040;-74
2021/12/30 05:50:59;;;;;;;0.00;0.00;;;13.20;99.90;;;;;;5073444;28;20035;-75
2021/12/30 05:53:30;;;;;;;;;;;13.20;99.90;;;;;;5072749;28;20037;-74
2021/12/30 05:55:57;;;;;;;0.00;0.00;;;13.20;99.90;;;;;;5073297;28;19923;-75
2021/12/30 05:58:22;;;;;;;0.08;0.08;;;13.30;99.90;;;;;;5073111;28;20285;-74
2021/12/30 06:00:49;;;;;;;0.10;0.10;;;13.30;99.90;;;;;;5072405;28;20396;-74
2021/12/30 06:03:19;;;;;;;0.00;0.00;;;13.30;99.90;;;;;;5071749;28;20028;-74
2021/12/30 06:05:50;;;;;;;0.00;0.00;;;13.20;99.90;;;;;;5073306;28;20033;-75
2021/12/30 06:08:16;;;;;;;0.00;0.00;;;13.30;99.90;;;;;;5072111;28;20199;-74
2021/12/30 06:10:43;;;;;;;0.70;0.60;;;13.30;99.90;;;;;;5055436;28;20033;-75
2021/12/30 06:13:10;;;;;;;0.00;0.00;;;13.30;99.90;;;;;;5071627;28;20029;-75
2021/12/30 06:15:36;;;;;;;0.00;0.00;;;13.30;99.90;;;;;;5070787;28;20037;-74
2021/12/30 06:18:03;;;;;;;0.00;0.00;;;13.30;99.90;;;;;;5072014;28;20487;-74
2021/12/30 06:20:29;;;;;;;0.00;0.00;;;13.30;99.90;;;;;;5073234;28;20036;-73
2021/12/30 06:22:55;;;;;;;0.00;0.00;;;13.30;99.90;;;;;;5072653;28;20393;-73
2021/12/30 06:25:24;;;;;;;0.00;0.00;;;13.40;99.90;;;;;;5072846;28;20039;-73
2021/12/30 06:27:50;;;;;;;0.00;0.00;;;13.40;99.90;;;;;;5071410;28;20029;-73
2021/12/30 06:30:16;;;;;;;0.00;0.00;;;13.40;99.90;;;;;;5071431;28;20082;-73
2021/12/30 06:32:42;;;;;;;0.00;0.00;;;13.40;99.90;;;;;;5071805;28;20029;-76
2021/12/30 06:35:09;;;;;;;0.00;0.00;;;13.40;99.90;;;;;;5072721;28;20028;-73
2021/12/30 06:37:40;;;;;;;0.00;0.00;;;13.40;99.90;;;;;;5072854;28;20036;-74
2021/12/30 06:40:08;;;;;;;0.00;0.00;;;13.30;99.90;;;;;;5087954;28;20327;-74
2021/12/30 06:42:34;;;;;;;0.00;0.00;;;13.30;99.90;;;;;;5072117;28;20085;-72
2021/12/30 06:45:00;;;;;;;0.00;0.00;;;13.30;99.90;;;;;;5072465;28;20060;-73
2021/12/30 06:47:26;;;;;;;0.00;0.00;;;13.30;99.90;;;;;;5072158;28;20055;-74
2021/12/30 06:49:58;;;;;;;0.00;0.00;;;13.30;99.90;;;;;;5071437;28;20077;-74
2021/12/30 06:52:24;;;;;;;0.00;0.00;;;13.20;99.90;;;;;;5070819;28;20515;-72
2021/12/30 06:54:50;;;;;;;0.00;0.00;;;13.20;99.90;;;;;;5070485;28;20082;-71
2021/12/30 06:57:16;;;;;;;0.00;0.00;;;13.20;99.90;;;;;;5072562;28;20036;-71
2021/12/30 06:59:41;;;;;;;0.00;0.00;;;13.20;99.90;;;;;;5072623;28;20391;-71
2021/12/30 07:02:07;;;;;;;0.00;0.00;;;13.20;99.90;;;;;;5072117;28;20089;-71
2021/12/30 07:04:34;;;;;;;0.22;0.20;;;13.20;99.90;;;;;;5071037;28;20029;-72
2021/12/30 07:07:00;;;;;;;0.00;0.00;;;13.20;99.90;;;;;;5070949;28;20540;-74
2021/12/30 07:09:26;;;;;;;0.00;0.00;;;13.20;99.90;;;;;;5072249;28;20038;-76
2021/12/30 07:11:52;;;;;;;0.00;0.00;;;13.20;99.90;;;;;;5072592;28;20032;-74
2021/12/30 07:14:20;;;;;;;0.05;0.05;;;13.20;99.90;;;;;;5070615;28;20032;-73
2021/12/30 07:16:46;;;;;;;0.05;0.05;;;13.20;99.90;;;;;;5072318;28;20559;-74
2021/12/30 07:19:13;;;;;;;0.00;0.00;;;13.20;99.90;;;;;;5053938;28;20025;-74
2021/12/30 07:21:40;;;;;;;0.28;0.28;;;13.20;99.90;;;;;;5053913;28;20147;-74
2021/12/30 07:24:06;;;;;;;0.03;0.03;;;13.10;99.90;;;;;;5077884;28;20025;-74
2021/12/30 07:26:32;;;;;;;0.00;0.00;;;13.10;99.90;;;;;;5050546;28;20029;-74
2021/12/30 07:28:59;;;;;;;0.10;0.10;;;13.10;99.90;;;;;;5052237;28;20052;-75
2021/12/30 07:31:25;;;;;;;0.00;0.00;;;13.00;99.90;;;;;;5051771;28;20756;-74
2021/12/30 07:33:51;;;;;;;0.00;0.00;;;13.00;99.90;;;;;;5051893;28;20037;-73
2021/12/30 07:36:17;;;;;;;0.00;0.00;;;13.00;99.90;;;;;;5051542;28;20025;-71
2021/12/30 07:38:43;;;;;;;0.10;0.10;;;13.00;99.90;;;;;;5051828;28;20028;-69
2021/12/30 07:41:08;;;;;;;0.00;0.00;;;13.00;99.90;;;;;;5050038;28;20051;-73
2021/12/30 07:43:34;;;;;;;0.00;0.00;;;13.00;99.90;;;;;;5050514;28;20056;-72
2021/12/30 07:46:01;;;;;;;0.00;0.00;;;13.10;99.90;;;;;;5051606;28;20036;-71
2021/12/30 07:48:27;;;;;;;0.08;0.08;;;13.20;99.90;;;;;;5051431;28;20521;-71
2021/12/30 07:50:53;;;;;;;0.00;0.00;;;13.30;99.90;;;;;;5050310;28;20486;-71
2021/12/30 07:53:20;;;;;;;0.00;0.00;;;13.40;99.90;;;;;;5051250;28;20035;-72
2021/12/30 07:55:46;;;;;;;0.00;0.00;;;13.50;99.90;;;;;;5051097;28;20031;-71
2021/12/30 07:58:12;;;;;;;0.00;0.00;;;13.50;99.90;;;;;;5050201;28;20425;-71
2021/12/30 08:00:38;;;;;;;0.85;0.75;;;13.70;99.90;;;;;;5051784;28;20036;-71
2021/12/30 08:03:04;;;;;;;0.00;0.00;;;13.80;99.90;;;;;;5050527;28;20033;-72
2021/12/30 08:05:30;;;;;;;0.00;0.00;;;13.80;99.90;;;;;;5052554;28;20108;-71
2021/12/30 08:07:57;;;;;;;0.00;0.00;;;13.90;99.90;;;;;;5055445;28;20559;-71
2021/12/30 08:10:23;;;;;;;0.00;0.00;;;14.00;99.90;;;;;;5055368;28;20033;-72
2021/12/30 08:12:49;;;;;;;0.00;0.00;;;14.00;99.90;;;;;;5055924;28;20036;-71
2021/12/30 08:15:16;;;;;;;16.08;1.10;;;14.20;99.90;;;;;;5055614;28;20033;-71
2021/12/30 08:17:44;;;;;;;0.00;0.00;;;14.20;99.90;;;;;;5055858;28;20056;-71
2021/12/30 08:20:12;;;;;;;0.00;0.00;;;14.10;99.90;;;;;;5053949;28;20440;-71
2021/12/30 08:22:38;;;;;;;0.00;0.00;;;14.10;99.90;;;;;;5055703;28;20025;-72
2021/12/30 08:25:07;;;;;;;0.00;0.00;;;14.10;99.90;;;;;;5053934;28;20128;-71
2021/12/30 08:27:33;;;;;;;0.00;0.00;;;14.10;99.90;;;;;;5055223;28;20037;-71
2021/12/30 08:29:58;;;;;;;0.00;0.00;;;14.20;99.90;;;;;;5054113;28;20115;-71
2021/12/30 08:32:24;;;;;;;0.45;0.38;;;14.20;99.90;;;;;;5053917;28;20029;-71
2021/12/30 08:34:50;;;;;;;0.00;0.00;;;14.20;99.90;;;;;;5055198;28;20032;-71
2021/12/30 08:37:16;;;;;;;0.00;0.00;;;14.20;99.90;;;;;;5055080;28;20681;-72
2021/12/30 08:39:44;;;;;;;0.00;0.00;;;14.00;99.90;;;;;;5054921;28;20033;-71
2021/12/30 08:42:39;;;;;;;0.00;0.00;;;14.20;99.90;;;;;;5054929;28;20112;-68
2021/12/30 08:45:07;;;;;;;0.10;0.10;;;14.20;99.90;;;;;;5046043;28;20045;-71
2021/12/30 08:47:34;;;;;;;0.00;0.00;;;14.20;99.90;;;;;;5037063;28;20036;-72
2021/12/30 08:50:00;;;;;;;0.00;0.00;;;14.20;99.90;;;;;;5062588;28;20077;-72
2021/12/30 08:52:29;;;;;;;0.00;0.00;;;14.20;99.90;;;;;;5057144;28;20036;-71
2021/12/30 08:54:59;;;;;;;0.20;0.20;;;14.20;99.90;;;;;;5073080;28;20032;-71
2021/12/30 08:57:25;;;;;;;0.00;0.00;;;14.10;99.90;;;;;;5073493;28;20115;-71
2021/12/30 08:59:52;;;;;;;0.00;0.00;;;14.20;99.90;;;;;;5056713;28;20112;-72
2021/12/30 09:02:17;;;;;;;0.00;0.00;;;14.30;99.90;;;;;;5074753;28;20048;-71
2021/12/30 09:04:46;;;;;;;0.00;0.00;;;14.40;99.90;;;;;;5074498;28;20540;-72
2021/12/30 09:07:14;;;;;;;0.00;0.00;;;14.50;99.90;;;;;;5074389;28;20112;-71
2021/12/30 09:09:40;;;;;;;0.05;0.05;;;14.60;99.90;;;;;;5074581;28;20040;-72
2021/12/30 09:12:07;;;;;;;0.00;0.00;;;14.60;99.90;;;;;;5074502;28;20056;-74
2021/12/30 09:14:33;;;;;;;0.08;0.05;;;14.60;99.90;;;;;;5074655;28;20044;-71
2021/12/30 09:16:59;;;;;;;0.03;0.03;;;14.60;99.90;;;;;;5073448;28;20435;-71
2021/12/30 09:19:25;;;;;;;0.00;0.00;;;14.60;99.90;;;;;;5089705;28;20024;-71
2021/12/30 09:21:50;;;;;;;0.00;0.00;;;14.50;99.90;;;;;;5072810;28;20035;-72
2021/12/30 09:24:16;;;;;;;0.25;0.25;;;14.50;99.90;;;;;;5064799;28;20028;-72
2021/12/30 09:26:42;;;;;;;0.10;0.10;;;14.60;99.90;;;;;;5054005;28;20036;-72
2021/12/30 09:29:11;;;;;;;0.88;0.77;;;14.60;99.90;;;;;;5052820;28;20049;-72
2021/12/30 09:31:46;;;;;;;0.00;0.00;;;14.40;99.90;;;;;;5052624;28;20119;-70
2021/12/30 09:34:12;;;;;;;0.00;0.00;;;14.60;99.90;;;;;;5053690;28;20040;-72
2021/12/30 09:36:39;;;;;;;0.00;0.00;;;14.60;99.90;;;;;;5053786;28;20029;-71
2021/12/30 09:39:10;;;;;;;0.75;0.55;;;14.70;99.90;;;;;;5052785;28;20040;-71
2021/12/30 09:41:39;;;;;;;0.00;0.00;;;14.70;99.90;;;;;;5052494;28;20028;-71
2021/12/30 09:44:07;;;;;;;0.00;0.00;;;14.70;99.90;;;;;;5052655;28;20040;-71
2021/12/30 09:46:34;;;;;;;0.15;0.15;;;14.70;99.90;;;;;;5052476;28;20057;-71
2021/12/30 09:49:03;;;;;;;0.00;0.00;;;14.60;99.90;;;;;;5053754;28;20025;-72
2021/12/30 09:51:29;;;;;;;0.00;0.00;;;14.60;99.90;;;;;;5053439;28;20430;-71
2021/12/30 09:53:54;;;;;;;0.10;0.10;;;14.60;99.90;;;;;;5053669;28;20119;-72
2021/12/30 09:56:21;;;;;;;0.00;0.00;;;14.70;99.90;;;;;;5053323;28;20056;-72
2021/12/30 09:58:48;;;;;;;0.00;0.00;;;14.80;99.90;;;;;;5052660;28;20074;-71
2021/12/30 10:01:14;;;;;;;0.00;0.00;;;14.90;99.90;;;;;;5052247;28;20047;-72
2021/12/30 10:03:42;;;;;;;0.00;0.00;;;15.00;99.90;;;;;;5036026;28;20020;-72
2021/12/30 10:06:11;;;;;;;0.00;0.00;;;14.90;99.90;;;;;;5053264;28;20041;-71
2021/12/30 10:08:42;;;;;;;0.00;0.00;;;14.90;99.90;;;;;;5053302;28;20429;-72
2021/12/30 10:11:13;;;;;;;0.00;0.00;;;14.90;99.90;;;;;;5053080;28;20049;-71
2021/12/30 10:13:47;;;;;;;0.00;0.00;;;14.80;99.90;;;;;;5053528;28;20527;-71
2021/12/30 10:16:17;;;;;;;0.00;0.00;;;14.90;99.90;;;;;;5036394;28;20120;-71
2021/12/30 10:18:57;;;;;;;0.00;0.00;;;14.90;99.90;;;;;;5052200;28;20040;-71
2021/12/30 10:21:38;;;;;;;0.10;0.10;;;14.80;99.90;;;;;;5052964;28;20056;-71
2021/12/30 10:24:08;;;;;;;0.25;0.25;;;14.90;99.90;;;;;;5053236;28;20501;-66
2021/12/30 10:27:07;;;;;;;0.00;0.00;;;15.00;99.90;;;;;;5073806;28;20096;-71
2021/12/30 10:29:42;;;;;;;0.00;0.00;;;14.90;99.90;;;;;;5047266;28;20063;-66
2021/12/30 10:32:17;;;;;;;0.00;0.00;;;15.00;99.90;;;;;;5093205;28;20051;-71
2021/12/30 10:35:14;;;;;;;0.00;0.00;;;15.00;99.90;;;;;;5092309;28;20028;-73
2021/12/30 10:37:46;;;;;;;0.00;0.00;;;15.00;99.90;;;;;;5070286;28;20040;-75
2021/12/30 10:40:31;;;;;;;0.00;0.00;;;15.10;99.90;;;;;;5091750;28;20035;-75
2021/12/30 10:43:25;;;;;;;0.05;0.05;;;15.10;99.90;;;;;;5093189;28;20111;-76
2021/12/30 10:46:20;;;;;;;0.00;0.00;;;15.20;99.90;;;;;;5081751;28;20047;-65
2021/12/30 10:49:11;;;;;;;0.00;0.00;;;15.30;99.90;;;;;;5087155;28;20060;-73
2021/12/30 10:51:47;;;;;;;0.00;0.00;;;15.30;99.90;;;;;;5072872;28;20557;-70
2021/12/30 10:54:26;;;;;;;0.00;0.00;;;15.20;99.90;;;;;;5072428;28;20399;-68
2021/12/30 10:57:06;;;;;;;0.00;0.00;;;15.30;99.90;;;;;;5057803;28;20061;-67
2021/12/30 10:59:40;;;;;;;0.00;0.00;;;15.30;99.90;;;;;;5052386;28;20057;-68
2021/12/30 11:02:16;;;;;;;0.43;0.43;;;15.30;99.90;;;;;;5051146;28;20041;-68
2021/12/30 11:04:46;;;;;;;0.00;0.00;;;15.40;99.90;;;;;;5051016;28;20144;-67
2021/12/30 11:07:21;;;;;;;0.00;0.00;;;15.40;99.90;;;;;;5051186;28;20529;-73
2021/12/30 11:09:56;;;;;;;0.00;0.00;;;15.40;99.90;;;;;;5052231;28;20295;-73
2021/12/30 11:12:41;;;;;;;0.00;0.00;;;15.40;99.90;;;;;;5051260;28;20025;-72
2021/12/30 11:15:25;;;;;;;0.00;0.00;;;15.40;99.90;;;;;;5051122;28;20048;-72
2021/12/30 11:18:07;;;;;;;0.00;0.00;;;15.30;99.90;;;;;;5034521;28;20069;-72
2021/12/30 11:20:43;;;;;;;0.00;0.00;;;15.40;99.90;;;;;;5034562;28;20025;-71
2021/12/30 11:23:11;;;;;;;0.00;0.00;;;15.30;99.90;;;;;;5052240;28;20104;-72
2021/12/30 11:25:37;;;;;;;0.40;0.20;;;15.30;99.90;;;;;;5053644;28;20040;-83
2021/12/30 11:28:03;;;;;;;0.00;0.00;;;15.30;99.90;;;;;;5068276;28;20032;-71
2021/12/30 11:30:29;;;;;;;0.00;0.00;;;15.40;99.90;;;;;;5072012;28;20038;-72
2021/12/30 11:32:55;;;;;;;0.00;0.00;;;15.40;99.90;;;;;;5072201;28;20107;-72
2021/12/30 11:35:25;;;;;;;0.05;0.05;;;15.40;99.90;;;;;;5070686;28;20433;-73
2021/12/30 11:37:53;;;;;;;0.00;0.00;;;15.40;99.90;;;;;;5071895;28;20028;-73
2021/12/30 11:40:25;;;;;;;0.00;0.00;;;15.40;99.90;;;;;;5069960;28;20385;-71
2021/12/30 11:43:07;;;;;;;0.00;0.00;;;15.30;99.90;;;;;;5054231;28;20122;-68
2021/12/30 11:45:39;;;;;;;0.08;0.08;;;15.30;99.90;;;;;;5071653;28;20032;-74
2021/12/30 11:48:27;;;;;;;0.00;0.00;;;15.20;99.90;;;;;;5070140;28;20044;-74
2021/12/30 11:51:14;;;;;;;0.00;0.00;;;15.40;99.90;;;;;;5070330;28;20485;-76
2021/12/30 11:53:40;;;;;;;0.00;0.00;;;15.30;99.90;;;;;;5086825;28;20036;-73
2021/12/30 11:56:17;;;;;;;0.00;0.00;;;15.30;99.90;;;;;;5071402;28;20033;-73
2021/12/30 11:59:03;;;;;;;0.00;0.00;;;15.20;99.90;;;;;;5071456;28;20497;-73
2021/12/30 12:01:36;;;;;;;0.00;0.00;;;15.20;99.90;;;;;;5070398;28;20028;-74
2021/12/30 12:04:27;;;;;;;0.00;0.00;;;15.20;99.90;;;;;;5070133;28;20060;-75
2021/12/30 12:07:50;;;;;;;0.00;0.00;;;15.10;99.90;;;;;;5070351;28;20593;-74
2021/12/30 12:10:18;;;;;;;0.00;0.00;;;15.00;99.90;;;;;;5069981;28;20063;-75
2021/12/30 12:12:43;;;;;;;0.00;0.00;;;15.10;99.90;;;;;;5071675;28;20037;-73
2021/12/30 12:15:09;;;;;;;0.00;0.00;;;14.90;99.90;;;;;;5071386;28;20024;-75
2021/12/30 12:17:41;;;;;;;0.25;0.17;;;14.80;99.90;;;;;;5070488;28;20045;-73
2021/12/30 12:20:28;;;;;;;0.00;0.00;;;14.80;99.90;;;;;;5070460;28;20493;-71
2021/12/30 12:22:54;;;;;;;0.00;0.00;;;14.80;99.90;;;;;;5070050;28;20041;-72
2021/12/30 12:25:28;;;;;;;0.00;0.00;;;14.80;99.90;;;;;;5071552;28;20021;-72
2021/12/30 12:27:56;;;;;;;0.00;0.00;;;14.80;99.90;;;;;;5070074;28;20089;-72
2021/12/30 12:30:32;;;;;;;0.00;0.00;;;14.80;99.90;;;;;;5071249;28;20485;-71
2021/12/30 12:33:29;;;;;;;0.00;0.00;;;14.70;99.90;;;;;;5071417;28;20033;-71
2021/12/30 12:35:56;;;;;;;0.00;0.00;;;14.60;99.90;;;;;;5069791;28;20028;-72
2021/12/30 12:38:38;;;;;;;0.00;0.00;;;14.60;99.90;;;;;;5071252;28;20102;-64
2021/12/30 12:41:26;;;;;;;0.00;0.00;;;14.70;99.90;;;;;;5071411;28;20400;-64
2021/12/30 12:44:20;;;;;;;0.00;0.00;;;14.60;99.90;;;;;;5069985;28;20097;-71
2021/12/30 12:46:51;;;;;;;0.00;0.00;;;14.60;99.90;;;;;;5069417;28;20060;-70
2021/12/30 12:49:44;;;;;;;;;;;14.60;99.90;;;;;;5071404;28;20096;-70
2021/12/30 12:52:10;;;;;;;0.00;0.00;;;14.60;99.90;;;;;;5069352;28;20281;-68
2021/12/30 12:54:50;;;;;;;0.00;0.00;;;14.50;99.90;;;;;;5073333;28;20028;-65
2021/12/30 12:57:21;;;;;;;0.00;0.00;;;14.40;99.90;;;;;;5074920;28;20119;-72
2021/12/30 12:59:47;;;;;;;0.00;0.00;;;14.20;99.90;;;;;;5075092;28;20137;-72